sensor_id;sensor_type;location;lat;lon;timestamp;P1;durP1;ratioP1;P2;durP2;ratioP2
55758;SDS011;41678;52.126;20.664;2023-03-23T00:01:41;35.67;;;13.57;;
55758;SDS011;41678;52.126;20.664;2023-03-23T00:07:00;31.00;;;13.50;;
55758;SDS011;41678;52.126;20.664;2023-03-23T00:12:22;26.50;;;14.60;;
55758;SDS011;41678;52.126;20.664;2023-03-23T00:17:52;31.17;;;12.95;;
55758;SDS011;41678;52.126;20.664;2023-03-23T00:23:11;27.90;;;12.82;;
55758;SDS011;41678;52.126;20.664;2023-03-23T00:28:37;39.05;;;15.50;;
55758;SDS011;41678;52.126;20.664;2023-03-23T00:33:58;30.95;;;13.73;;
55758;SDS011;41678;52.126;20.664;2023-03-23T00:39:20;31.42;;;13.20;;
55758;SDS011;41678;52.126;20.664;2023-03-23T00:44:43;29.48;;;11.60;;
55758;SDS011;41678;52.126;20.664;2023-03-23T00:50:03;28.95;;;13.43;;
55758;SDS011;41678;52.126;20.664;2023-03-23T00:55:24;27.27;;;12.00;;
55758;SDS011;41678;52.126;20.664;2023-03-23T01:00:44;30.83;;;12.00;;
55758;SDS011;41678;52.126;20.664;2023-03-23T01:06:08;34.03;;;12.15;;
55758;SDS011;41678;52.126;20.664;2023-03-23T01:11:31;23.77;;;11.90;;
55758;SDS011;41678;52.126;20.664;2023-03-23T01:16:52;28.42;;;11.18;;
55758;SDS011;41678;52.126;20.664;2023-03-23T01:22:11;32.45;;;11.20;;
55758;SDS011;41678;52.126;20.664;2023-03-23T01:27:31;26.00;;;11.48;;
55758;SDS011;41678;52.126;20.664;2023-03-23T01:32:51;25.27;;;11.23;;
55758;SDS011;41678;52.126;20.664;2023-03-23T01:38:11;24.70;;;10.48;;
55758;SDS011;41678;52.126;20.664;2023-03-23T01:43:31;24.85;;;9.57;;
55758;SDS011;41678;52.126;20.664;2023-03-23T01:48:51;20.67;;;9.30;;
55758;SDS011;41678;52.126;20.664;2023-03-23T01:54:12;23.90;;;10.23;;
55758;SDS011;41678;52.126;20.664;2023-03-23T01:59:38;26.35;;;10.85;;
55758;SDS011;41678;52.126;20.664;2023-03-23T02:05:11;31.25;;;11.50;;
55758;SDS011;41678;52.126;20.664;2023-03-23T02:10:36;28.80;;;11.27;;
55758;SDS011;41678;52.126;20.664;2023-03-23T02:27:14;25.20;;;10.90;;
55758;SDS011;41678;52.126;20.664;2023-03-23T02:38:20;24.83;;;11.30;;
55758;SDS011;41678;52.126;20.664;2023-03-23T02:43:46;25.70;;;12.07;;
55758;SDS011;41678;52.126;20.664;2023-03-23T02:49:07;31.38;;;11.27;;
55758;SDS011;41678;52.126;20.664;2023-03-23T02:59:48;24.48;;;10.35;;
55758;SDS011;41678;52.126;20.664;2023-03-23T03:10:34;21.85;;;10.13;;
55758;SDS011;41678;52.126;20.664;2023-03-23T03:15:58;20.00;;;10.18;;
55758;SDS011;41678;52.126;20.664;2023-03-23T03:26:46;28.48;;;11.23;;
55758;SDS011;41678;52.126;20.664;2023-03-23T03:32:22;29.85;;;13.13;;
55758;SDS011;41678;52.126;20.664;2023-03-23T03:37:45;34.67;;;13.05;;
55758;SDS011;41678;52.126;20.664;2023-03-23T03:43:06;21.30;;;10.38;;
55758;SDS011;41678;52.126;20.664;2023-03-23T03:48:26;23.80;;;10.30;;
55758;SDS011;41678;52.126;20.664;2023-03-23T03:53:45;21.67;;;10.13;;
55758;SDS011;41678;52.126;20.664;2023-03-23T03:59:06;32.97;;;9.88;;
55758;SDS011;41678;52.126;20.664;2023-03-23T04:05:02;21.88;;;10.20;;
55758;SDS011;41678;52.126;20.664;2023-03-23T04:10:23;24.05;;;10.55;;
55758;SDS011;41678;52.126;20.664;2023-03-23T04:15:47;22.05;;;9.35;;
55758;SDS011;41678;52.126;20.664;2023-03-23T04:21:08;20.60;;;10.07;;
55758;SDS011;41678;52.126;20.664;2023-03-23T04:26:27;24.05;;;11.15;;
55758;SDS011;41678;52.126;20.664;2023-03-23T04:31:56;21.08;;;9.35;;
55758;SDS011;41678;52.126;20.664;2023-03-23T04:37:26;20.83;;;9.68;;
55758;SDS011;41678;52.126;20.664;2023-03-23T04:42:49;28.80;;;10.18;;
55758;SDS011;41678;52.126;20.664;2023-03-23T04:48:23;27.17;;;11.70;;
55758;SDS011;41678;52.126;20.664;2023-03-23T04:53:55;27.10;;;10.02;;
55758;SDS011;41678;52.126;20.664;2023-03-23T04:59:16;30.58;;;10.50;;
55758;SDS011;41678;52.126;20.664;2023-03-23T05:04:46;23.38;;;9.10;;
55758;SDS011;41678;52.126;20.664;2023-03-23T05:10:11;25.98;;;10.38;;
55758;SDS011;41678;52.126;20.664;2023-03-23T05:15:31;34.60;;;10.17;;
55758;SDS011;41678;52.126;20.664;2023-03-23T05:20:52;23.95;;;9.73;;
55758;SDS011;41678;52.126;20.664;2023-03-23T05:26:15;27.48;;;9.18;;
55758;SDS011;41678;52.126;20.664;2023-03-23T05:31:34;23.55;;;9.23;;
55758;SDS011;41678;52.126;20.664;2023-03-23T05:36:54;41.83;;;9.48;;
55758;SDS011;41678;52.126;20.664;2023-03-23T05:42:41;23.83;;;9.10;;
55758;SDS011;41678;52.126;20.664;2023-03-23T05:48:08;26.00;;;9.10;;
55758;SDS011;41678;52.126;20.664;2023-03-23T05:53:28;18.30;;;8.05;;
55758;SDS011;41678;52.126;20.664;2023-03-23T05:58:50;21.73;;;8.77;;
55758;SDS011;41678;52.126;20.664;2023-03-23T06:04:10;18.40;;;7.88;;
55758;SDS011;41678;52.126;20.664;2023-03-23T06:09:38;21.63;;;8.73;;
55758;SDS011;41678;52.126;20.664;2023-03-23T06:14:58;20.30;;;8.27;;
55758;SDS011;41678;52.126;20.664;2023-03-23T06:20:32;15.05;;;7.57;;
55758;SDS011;41678;52.126;20.664;2023-03-23T06:26:01;20.95;;;7.65;;
55758;SDS011;41678;52.126;20.664;2023-03-23T06:31:25;15.93;;;7.38;;
55758;SDS011;41678;52.126;20.664;2023-03-23T06:36:47;16.15;;;7.07;;
55758;SDS011;41678;52.126;20.664;2023-03-23T06:42:16;21.00;;;7.32;;
55758;SDS011;41678;52.126;20.664;2023-03-23T06:47:41;24.65;;;8.75;;
55758;SDS011;41678;52.126;20.664;2023-03-23T06:53:02;17.55;;;7.18;;
55758;SDS011;41678;52.126;20.664;2023-03-23T06:58:22;19.02;;;8.18;;
55758;SDS011;41678;52.126;20.664;2023-03-23T07:03:43;18.52;;;7.82;;
55758;SDS011;41678;52.126;20.664;2023-03-23T07:09:05;16.55;;;7.55;;
55758;SDS011;41678;52.126;20.664;2023-03-23T07:14:26;19.15;;;7.10;;
55758;SDS011;41678;52.126;20.664;2023-03-23T07:19:47;18.92;;;7.85;;
55758;SDS011;41678;52.126;20.664;2023-03-23T07:25:09;22.63;;;7.47;;
55758;SDS011;41678;52.126;20.664;2023-03-23T07:30:43;18.73;;;7.63;;
55758;SDS011;41678;52.126;20.664;2023-03-23T07:36:03;19.80;;;7.18;;
55758;SDS011;41678;52.126;20.664;2023-03-23T07:41:24;19.63;;;6.85;;
55758;SDS011;41678;52.126;20.664;2023-03-23T07:52:08;23.02;;;6.72;;
55758;SDS011;41678;52.126;20.664;2023-03-23T07:57:28;15.77;;;6.15;;
55758;SDS011;41678;52.126;20.664;2023-03-23T08:08:25;15.95;;;6.78;;
55758;SDS011;41678;52.126;20.664;2023-03-23T08:14:08;15.00;;;6.18;;
55758;SDS011;41678;52.126;20.664;2023-03-23T08:20:06;12.48;;;5.82;;
55758;SDS011;41678;52.126;20.664;2023-03-23T08:25:55;13.32;;;5.65;;
55758;SDS011;41678;52.126;20.664;2023-03-23T08:31:38;13.70;;;6.07;;
55758;SDS011;41678;52.126;20.664;2023-03-23T08:37:21;14.50;;;6.22;;
55758;SDS011;41678;52.126;20.664;2023-03-23T08:42:51;12.68;;;5.07;;
55758;SDS011;41678;52.126;20.664;2023-03-23T08:48:31;12.32;;;5.70;;
55758;SDS011;41678;52.126;20.664;2023-03-23T08:54:02;16.55;;;5.32;;
55758;SDS011;41678;52.126;20.664;2023-03-23T08:59:41;16.10;;;6.00;;
55758;SDS011;41678;52.126;20.664;2023-03-23T09:05:21;14.82;;;5.05;;
55758;SDS011;41678;52.126;20.664;2023-03-23T09:11:09;15.63;;;5.10;;
55758;SDS011;41678;52.126;20.664;2023-03-23T09:16:29;16.17;;;4.35;;
55758;SDS011;41678;52.126;20.664;2023-03-23T09:21:50;14.38;;;4.15;;
55758;SDS011;41678;52.126;20.664;2023-03-23T09:27:10;8.65;;;3.88;;
55758;SDS011;41678;52.126;20.664;2023-03-23T09:32:29;12.18;;;4.00;;
55758;SDS011;41678;52.126;20.664;2023-03-23T09:37:49;7.63;;;2.97;;
55758;SDS011;41678;52.126;20.664;2023-03-23T09:54:40;9.13;;;4.07;;
55758;SDS011;41678;52.126;20.664;2023-03-23T10:05:45;8.55;;;3.75;;
55758;SDS011;41678;52.126;20.664;2023-03-23T10:17:04;14.15;;;4.07;;
55758;SDS011;41678;52.126;20.664;2023-03-23T10:22:39;10.60;;;3.47;;
55758;SDS011;41678;52.126;20.664;2023-03-23T10:28:21;8.50;;;3.17;;
55758;SDS011;41678;52.126;20.664;2023-03-23T10:33:55;9.52;;;3.33;;
55758;SDS011;41678;52.126;20.664;2023-03-23T10:39:21;14.32;;;4.13;;
55758;SDS011;41678;52.126;20.664;2023-03-23T10:44:43;11.63;;;3.25;;
55758;SDS011;41678;52.126;20.664;2023-03-23T10:50:06;9.48;;;3.42;;
55758;SDS011;41678;52.126;20.664;2023-03-23T10:55:37;9.38;;;3.13;;
55758;SDS011;41678;52.126;20.664;2023-03-23T11:01:00;10.60;;;2.58;;
55758;SDS011;41678;52.126;20.664;2023-03-23T11:06:26;7.30;;;1.60;;
55758;SDS011;41678;52.126;20.664;2023-03-23T11:11:50;3.97;;;1.30;;
55758;SDS011;41678;52.126;20.664;2023-03-23T11:17:20;4.97;;;1.55;;
55758;SDS011;41678;52.126;20.664;2023-03-23T11:22:44;21.65;;;10.45;;
55758;SDS011;41678;52.126;20.664;2023-03-23T11:28:04;5.63;;;1.65;;
55758;SDS011;41678;52.126;20.664;2023-03-23T11:33:24;4.70;;;1.60;;
55758;SDS011;41678;52.126;20.664;2023-03-23T11:38:47;6.55;;;2.22;;
55758;SDS011;41678;52.126;20.664;2023-03-23T11:44:09;6.95;;;2.05;;
55758;SDS011;41678;52.126;20.664;2023-03-23T11:55:30;7.80;;;2.25;;
55758;SDS011;41678;52.126;20.664;2023-03-23T12:00:55;5.57;;;2.50;;
55758;SDS011;41678;52.126;20.664;2023-03-23T12:06:32;7.32;;;2.72;;
55758;SDS011;41678;52.126;20.664;2023-03-23T12:23:23;11.85;;;2.80;;
55758;SDS011;41678;52.126;20.664;2023-03-23T12:34:50;8.30;;;2.77;;
55758;SDS011;41678;52.126;20.664;2023-03-23T12:46:02;8.52;;;3.13;;
55758;SDS011;41678;52.126;20.664;2023-03-23T12:51:51;10.82;;;3.72;;
55758;SDS011;41678;52.126;20.664;2023-03-23T12:57:17;11.23;;;2.83;;
55758;SDS011;41678;52.126;20.664;2023-03-23T13:08:39;6.88;;;2.40;;
55758;SDS011;41678;52.126;20.664;2023-03-23T13:25:19;20.85;;;7.70;;
55758;SDS011;41678;52.126;20.664;2023-03-23T13:30:55;5.60;;;2.25;;
55758;SDS011;41678;52.126;20.664;2023-03-23T13:36:26;12.90;;;5.35;;
55758;SDS011;41678;52.126;20.664;2023-03-23T13:41:59;8.77;;;3.15;;
55758;SDS011;41678;52.126;20.664;2023-03-23T13:52:53;8.57;;;2.97;;
55758;SDS011;41678;52.126;20.664;2023-03-23T13:58:24;7.70;;;2.45;;
55758;SDS011;41678;52.126;20.664;2023-03-23T14:03:47;11.07;;;2.70;;
55758;SDS011;41678;52.126;20.664;2023-03-23T14:14:54;6.93;;;2.30;;
55758;SDS011;41678;52.126;20.664;2023-03-23T14:20:29;13.02;;;2.72;;
55758;SDS011;41678;52.126;20.664;2023-03-23T14:26:00;10.57;;;3.25;;
55758;SDS011;41678;52.126;20.664;2023-03-23T14:31:27;9.80;;;2.83;;
55758;SDS011;41678;52.126;20.664;2023-03-23T14:36:47;11.27;;;4.00;;
55758;SDS011;41678;52.126;20.664;2023-03-23T14:42:11;9.25;;;3.28;;
55758;SDS011;41678;52.126;20.664;2023-03-23T14:47:34;10.07;;;3.67;;
55758;SDS011;41678;52.126;20.664;2023-03-23T14:52:58;8.05;;;3.20;;
55758;SDS011;41678;52.126;20.664;2023-03-23T14:58:21;8.95;;;3.30;;
55758;SDS011;41678;52.126;20.664;2023-03-23T15:03:43;10.50;;;3.47;;
55758;SDS011;41678;52.126;20.664;2023-03-23T15:09:13;11.32;;;3.45;;
55758;SDS011;41678;52.126;20.664;2023-03-23T15:14:45;7.72;;;3.42;;
55758;SDS011;41678;52.126;20.664;2023-03-23T15:20:27;9.73;;;4.00;;
55758;SDS011;41678;52.126;20.664;2023-03-23T15:26:04;11.40;;;3.58;;
55758;SDS011;41678;52.126;20.664;2023-03-23T15:31:27;17.80;;;4.13;;
55758;SDS011;41678;52.126;20.664;2023-03-23T15:36:50;14.95;;;3.90;;
55758;SDS011;41678;52.126;20.664;2023-03-23T15:42:22;8.82;;;4.25;;
55758;SDS011;41678;52.126;20.664;2023-03-23T15:47:50;10.35;;;5.00;;
55758;SDS011;41678;52.126;20.664;2023-03-23T15:53:21;13.93;;;4.93;;
55758;SDS011;41678;52.126;20.664;2023-03-23T15:58:45;15.18;;;4.20;;
55758;SDS011;41678;52.126;20.664;2023-03-23T16:09:24;11.73;;;4.13;;
55758;SDS011;41678;52.126;20.664;2023-03-23T16:14:44;15.57;;;4.90;;
55758;SDS011;41678;52.126;20.664;2023-03-23T16:20:09;14.23;;;4.28;;
55758;SDS011;41678;52.126;20.664;2023-03-23T16:25:31;10.73;;;3.92;;
55758;SDS011;41678;52.126;20.664;2023-03-23T16:30:51;15.23;;;4.15;;
55758;SDS011;41678;52.126;20.664;2023-03-23T16:36:11;18.20;;;4.40;;
55758;SDS011;41678;52.126;20.664;2023-03-23T16:41:32;14.35;;;5.00;;
55758;SDS011;41678;52.126;20.664;2023-03-23T16:46:52;13.68;;;4.78;;
55758;SDS011;41678;52.126;20.664;2023-03-23T16:52:11;12.98;;;4.88;;
55758;SDS011;41678;52.126;20.664;2023-03-23T16:57:32;12.52;;;4.32;;
55758;SDS011;41678;52.126;20.664;2023-03-23T17:02:56;13.43;;;3.85;;
55758;SDS011;41678;52.126;20.664;2023-03-23T17:08:17;10.05;;;3.53;;
55758;SDS011;41678;52.126;20.664;2023-03-23T17:13:37;13.68;;;3.60;;
55758;SDS011;41678;52.126;20.664;2023-03-23T17:18:57;8.85;;;3.75;;
55758;SDS011;41678;52.126;20.664;2023-03-23T17:24:16;11.65;;;3.70;;
55758;SDS011;41678;52.126;20.664;2023-03-23T17:29:37;9.02;;;3.88;;
55758;SDS011;41678;52.126;20.664;2023-03-23T17:34:56;13.65;;;4.43;;
55758;SDS011;41678;52.126;20.664;2023-03-23T17:40:16;12.23;;;4.88;;
55758;SDS011;41678;52.126;20.664;2023-03-23T17:45:35;9.90;;;4.43;;
55758;SDS011;41678;52.126;20.664;2023-03-23T17:50:55;14.25;;;4.30;;
55758;SDS011;41678;52.126;20.664;2023-03-23T17:56:19;10.80;;;4.40;;
55758;SDS011;41678;52.126;20.664;2023-03-23T18:01:39;10.88;;;4.00;;
55758;SDS011;41678;52.126;20.664;2023-03-23T18:06:59;10.07;;;4.20;;
55758;SDS011;41678;52.126;20.664;2023-03-23T18:12:19;10.10;;;3.58;;
55758;SDS011;41678;52.126;20.664;2023-03-23T18:17:38;18.58;;;4.30;;
55758;SDS011;41678;52.126;20.664;2023-03-23T18:22:58;12.75;;;4.38;;
55758;SDS011;41678;52.126;20.664;2023-03-23T18:28:19;13.27;;;4.00;;
55758;SDS011;41678;52.126;20.664;2023-03-23T18:33:40;14.63;;;4.05;;
55758;SDS011;41678;52.126;20.664;2023-03-23T18:39:06;10.43;;;3.20;;
55758;SDS011;41678;52.126;20.664;2023-03-23T18:44:28;11.75;;;3.67;;
55758;SDS011;41678;52.126;20.664;2023-03-23T18:49:49;8.70;;;3.53;;
55758;SDS011;41678;52.126;20.664;2023-03-23T18:55:11;12.48;;;3.95;;
55758;SDS011;41678;52.126;20.664;2023-03-23T19:00:31;15.30;;;4.00;;
55758;SDS011;41678;52.126;20.664;2023-03-23T19:05:51;9.13;;;3.70;;
55758;SDS011;41678;52.126;20.664;2023-03-23T19:11:16;13.45;;;3.67;;
55758;SDS011;41678;52.126;20.664;2023-03-23T19:16:36;8.65;;;2.97;;
55758;SDS011;41678;52.126;20.664;2023-03-23T19:21:56;14.10;;;2.88;;
55758;SDS011;41678;52.126;20.664;2023-03-23T19:27:16;10.00;;;2.80;;
55758;SDS011;41678;52.126;20.664;2023-03-23T19:32:36;7.05;;;2.70;;
55758;SDS011;41678;52.126;20.664;2023-03-23T19:37:56;8.30;;;2.05;;
55758;SDS011;41678;52.126;20.664;2023-03-23T19:43:15;13.55;;;3.70;;
55758;SDS011;41678;52.126;20.664;2023-03-23T19:48:36;7.78;;;2.33;;
55758;SDS011;41678;52.126;20.664;2023-03-23T19:53:56;5.68;;;1.92;;
55758;SDS011;41678;52.126;20.664;2023-03-23T19:59:16;6.60;;;1.92;;
55758;SDS011;41678;52.126;20.664;2023-03-23T20:04:36;6.82;;;2.70;;
55758;SDS011;41678;52.126;20.664;2023-03-23T20:09:56;8.57;;;3.00;;
55758;SDS011;41678;52.126;20.664;2023-03-23T20:15:15;5.57;;;1.98;;
55758;SDS011;41678;52.126;20.664;2023-03-23T20:20:35;7.53;;;2.95;;
55758;SDS011;41678;52.126;20.664;2023-03-23T20:25:59;14.65;;;4.45;;
55758;SDS011;41678;52.126;20.664;2023-03-23T20:31:24;13.70;;;4.05;;
55758;SDS011;41678;52.126;20.664;2023-03-23T20:36:46;13.13;;;4.60;;
55758;SDS011;41678;52.126;20.664;2023-03-23T20:42:07;18.13;;;7.72;;
55758;SDS011;41678;52.126;20.664;2023-03-23T20:47:28;21.15;;;5.95;;
55758;SDS011;41678;52.126;20.664;2023-03-23T20:52:47;23.75;;;9.05;;
55758;SDS011;41678;52.126;20.664;2023-03-23T20:58:07;57.55;;;19.40;;
55758;SDS011;41678;52.126;20.664;2023-03-23T21:03:27;11.00;;;5.30;;
55758;SDS011;41678;52.126;20.664;2023-03-23T21:08:49;13.43;;;4.68;;
55758;SDS011;41678;52.126;20.664;2023-03-23T21:14:11;12.68;;;4.40;;
55758;SDS011;41678;52.126;20.664;2023-03-23T21:19:31;17.15;;;5.28;;
55758;SDS011;41678;52.126;20.664;2023-03-23T21:24:51;13.70;;;5.78;;
55758;SDS011;41678;52.126;20.664;2023-03-23T21:30:11;20.27;;;6.05;;
55758;SDS011;41678;52.126;20.664;2023-03-23T21:35:31;17.45;;;6.50;;
55758;SDS011;41678;52.126;20.664;2023-03-23T21:40:51;15.85;;;5.82;;
55758;SDS011;41678;52.126;20.664;2023-03-23T21:46:12;16.88;;;5.95;;
55758;SDS011;41678;52.126;20.664;2023-03-23T21:51:36;13.98;;;6.70;;
55758;SDS011;41678;52.126;20.664;2023-03-23T21:56:56;17.13;;;5.38;;
55758;SDS011;41678;52.126;20.664;2023-03-23T22:02:16;12.37;;;4.97;;
55758;SDS011;41678;52.126;20.664;2023-03-23T22:07:36;13.55;;;5.68;;
55758;SDS011;41678;52.126;20.664;2023-03-23T22:12:57;12.55;;;5.18;;
55758;SDS011;41678;52.126;20.664;2023-03-23T22:18:17;13.20;;;4.90;;
55758;SDS011;41678;52.126;20.664;2023-03-23T22:23:37;13.50;;;5.22;;
55758;SDS011;41678;52.126;20.664;2023-03-23T22:28:58;12.23;;;5.43;;
55758;SDS011;41678;52.126;20.664;2023-03-23T22:34:19;13.50;;;4.70;;
55758;SDS011;41678;52.126;20.664;2023-03-23T22:39:38;13.70;;;5.30;;
55758;SDS011;41678;52.126;20.664;2023-03-23T22:44:58;15.15;;;5.93;;
55758;SDS011;41678;52.126;20.664;2023-03-23T22:50:18;18.15;;;5.13;;
55758;SDS011;41678;52.126;20.664;2023-03-23T22:55:40;10.13;;;4.53;;
55758;SDS011;41678;52.126;20.664;2023-03-23T23:01:06;9.65;;;4.03;;
55758;SDS011;41678;52.126;20.664;2023-03-23T23:06:27;11.88;;;4.93;;
55758;SDS011;41678;52.126;20.664;2023-03-23T23:11:47;12.07;;;4.38;;
55758;SDS011;41678;52.126;20.664;2023-03-23T23:17:07;10.82;;;4.13;;
55758;SDS011;41678;52.126;20.664;2023-03-23T23:22:27;9.40;;;4.10;;
55758;SDS011;41678;52.126;20.664;2023-03-23T23:27:47;11.10;;;3.60;;
55758;SDS011;41678;52.126;20.664;2023-03-23T23:33:07;12.43;;;3.75;;
55758;SDS011;41678;52.126;20.664;2023-03-23T23:38:27;11.60;;;4.53;;
55758;SDS011;41678;52.126;20.664;2023-03-23T23:43:47;10.38;;;3.85;;
55758;SDS011;41678;52.126;20.664;2023-03-23T23:49:07;11.85;;;3.97;;
55758;SDS011;41678;52.126;20.664;2023-03-23T23:54:27;11.75;;;4.13;;
55758;SDS011;41678;52.126;20.664;2023-03-23T23:59:49;11.40;;;4.15;;
